sensor_id;sensor_type;location;lat;lon;timestamp;temperature;humidity
32446;DHT22;18899;50.748;7.102;2023-06-14T00:01:51;18.00;84.50
32446;DHT22;18899;50.748;7.102;2023-06-14T00:04:17;17.90;83.60
32446;DHT22;18899;50.748;7.102;2023-06-14T00:06:44;17.80;84.90
32446;DHT22;18899;50.748;7.102;2023-06-14T00:09:13;17.70;85.70
32446;DHT22;18899;50.748;7.102;2023-06-14T00:11:40;17.70;87.30
32446;DHT22;18899;50.748;7.102;2023-06-14T00:14:06;17.60;88.80
32446;DHT22;18899;50.748;7.102;2023-06-14T00:16:31;17.50;90.60
32446;DHT22;18899;50.748;7.102;2023-06-14T00:18:59;17.40;91.40
32446;DHT22;18899;50.748;7.102;2023-06-14T00:21:24;17.30;91.40
32446;DHT22;18899;50.748;7.102;2023-06-14T00:23:50;17.30;91.90
32446;DHT22;18899;50.748;7.102;2023-06-14T00:26:15;17.30;92.80
32446;DHT22;18899;50.748;7.102;2023-06-14T00:28:41;17.40;92.10
32446;DHT22;18899;50.748;7.102;2023-06-14T00:31:07;17.40;92.40
32446;DHT22;18899;50.748;7.102;2023-06-14T00:33:32;17.30;92.60
32446;DHT22;18899;50.748;7.102;2023-06-14T00:35:58;17.30;93.00
32446;DHT22;18899;50.748;7.102;2023-06-14T00:38:23;17.30;93.10
32446;DHT22;18899;50.748;7.102;2023-06-14T00:40:49;17.30;93.90
32446;DHT22;18899;50.748;7.102;2023-06-14T00:43:14;17.30;94.80
32446;DHT22;18899;50.748;7.102;2023-06-14T00:45:40;17.20;94.80
32446;DHT22;18899;50.748;7.102;2023-06-14T00:48:06;17.10;95.20
32446;DHT22;18899;50.748;7.102;2023-06-14T00:50:33;17.10;96.00
32446;DHT22;18899;50.748;7.102;2023-06-14T00:53:02;17.10;97.80
32446;DHT22;18899;50.748;7.102;2023-06-14T00:55:28;17.20;96.80
32446;DHT22;18899;50.748;7.102;2023-06-14T00:57:55;17.10;96.20
32446;DHT22;18899;50.748;7.102;2023-06-14T01:00:21;17.20;97.30
32446;DHT22;18899;50.748;7.102;2023-06-14T01:02:47;17.20;95.70
32446;DHT22;18899;50.748;7.102;2023-06-14T01:05:14;17.20;96.30
32446;DHT22;18899;50.748;7.102;2023-06-14T01:11:10;17.10;97.90
32446;DHT22;18899;50.748;7.102;2023-06-14T01:13:43;17.00;99.90
32446;DHT22;18899;50.748;7.102;2023-06-14T01:16:11;16.90;99.90
32446;DHT22;18899;50.748;7.102;2023-06-14T01:18:37;16.90;99.90
32446;DHT22;18899;50.748;7.102;2023-06-14T01:21:03;16.80;99.90
32446;DHT22;18899;50.748;7.102;2023-06-14T01:23:32;16.80;99.90
32446;DHT22;18899;50.748;7.102;2023-06-14T01:25:59;16.70;99.90
32446;DHT22;18899;50.748;7.102;2023-06-14T01:28:26;16.70;99.90
32446;DHT22;18899;50.748;7.102;2023-06-14T01:30:58;16.80;99.90
32446;DHT22;18899;50.748;7.102;2023-06-14T01:33:27;16.70;99.90
32446;DHT22;18899;50.748;7.102;2023-06-14T01:35:53;16.70;99.90
32446;DHT22;18899;50.748;7.102;2023-06-14T01:38:22;16.60;99.90
32446;DHT22;18899;50.748;7.102;2023-06-14T01:40:49;16.60;99.90
32446;DHT22;18899;50.748;7.102;2023-06-14T01:43:16;16.60;99.90
32446;DHT22;18899;50.748;7.102;2023-06-14T01:45:44;16.50;99.90
32446;DHT22;18899;50.748;7.102;2023-06-14T01:48:11;16.40;99.90
32446;DHT22;18899;50.748;7.102;2023-06-14T01:50:37;16.40;99.90
32446;DHT22;18899;50.748;7.102;2023-06-14T01:53:03;16.30;99.90
32446;DHT22;18899;50.748;7.102;2023-06-14T01:55:29;16.20;99.90
32446;DHT22;18899;50.748;7.102;2023-06-14T01:57:54;16.30;99.90
32446;DHT22;18899;50.748;7.102;2023-06-14T02:00:20;16.20;99.90
32446;DHT22;18899;50.748;7.102;2023-06-14T02:02:47;16.20;99.90
32446;DHT22;18899;50.748;7.102;2023-06-14T02:05:13;16.20;99.90
32446;DHT22;18899;50.748;7.102;2023-06-14T02:07:38;16.10;99.90
32446;DHT22;18899;50.748;7.102;2023-06-14T02:10:04;16.20;99.90
32446;DHT22;18899;50.748;7.102;2023-06-14T02:12:30;16.20;99.90
32446;DHT22;18899;50.748;7.102;2023-06-14T02:14:56;16.20;99.90
32446;DHT22;18899;50.748;7.102;2023-06-14T02:17:22;16.40;99.90
32446;DHT22;18899;50.748;7.102;2023-06-14T02:19:48;16.50;99.90
32446;DHT22;18899;50.748;7.102;2023-06-14T02:22:14;16.40;99.90
32446;DHT22;18899;50.748;7.102;2023-06-14T02:24:41;16.40;99.90
32446;DHT22;18899;50.748;7.102;2023-06-14T02:27:06;16.30;99.90
32446;DHT22;18899;50.748;7.102;2023-06-14T02:29:32;16.30;99.90
32446;DHT22;18899;50.748;7.102;2023-06-14T02:31:57;16.30;99.90
32446;DHT22;18899;50.748;7.102;2023-06-14T02:34:23;16.20;99.90
32446;DHT22;18899;50.748;7.102;2023-06-14T02:36:48;16.20;99.90
32446;DHT22;18899;50.748;7.102;2023-06-14T02:39:15;16.20;99.90
32446;DHT22;18899;50.748;7.102;2023-06-14T02:41:40;16.20;99.90
32446;DHT22;18899;50.748;7.102;2023-06-14T02:44:06;16.10;99.90
32446;DHT22;18899;50.748;7.102;2023-06-14T02:46:32;16.00;99.90
32446;DHT22;18899;50.748;7.102;2023-06-14T02:48:58;16.00;99.90
32446;DHT22;18899;50.748;7.102;2023-06-14T02:51:24;16.00;99.90
32446;DHT22;18899;50.748;7.102;2023-06-14T02:53:49;16.00;99.90
32446;DHT22;18899;50.748;7.102;2023-06-14T02:56:15;16.00;99.90
32446;DHT22;18899;50.748;7.102;2023-06-14T02:58:42;15.90;99.90
32446;DHT22;18899;50.748;7.102;2023-06-14T03:01:08;15.90;99.90
32446;DHT22;18899;50.748;7.102;2023-06-14T03:03:35;15.90;99.90
32446;DHT22;18899;50.748;7.102;2023-06-14T03:06:00;15.90;99.90
32446;DHT22;18899;50.748;7.102;2023-06-14T03:08:29;15.90;99.90
32446;DHT22;18899;50.748;7.102;2023-06-14T03:10:55;15.90;99.90
32446;DHT22;18899;50.748;7.102;2023-06-14T03:13:21;15.90;99.90
32446;DHT22;18899;50.748;7.102;2023-06-14T03:15:47;15.90;99.90
32446;DHT22;18899;50.748;7.102;2023-06-14T03:18:16;15.90;99.90
32446;DHT22;18899;50.748;7.102;2023-06-14T03:20:42;15.90;99.90
32446;DHT22;18899;50.748;7.102;2023-06-14T03:23:11;15.90;99.90
32446;DHT22;18899;50.748;7.102;2023-06-14T03:25:37;15.90;99.90
32446;DHT22;18899;50.748;7.102;2023-06-14T03:28:04;15.80;99.90
32446;DHT22;18899;50.748;7.102;2023-06-14T03:30:31;15.70;99.90
32446;DHT22;18899;50.748;7.102;2023-06-14T03:32:57;15.70;99.90
32446;DHT22;18899;50.748;7.102;2023-06-14T03:35:23;15.70;99.90
32446;DHT22;18899;50.748;7.102;2023-06-14T03:37:48;15.70;99.90
32446;DHT22;18899;50.748;7.102;2023-06-14T03:40:17;15.70;99.90
32446;DHT22;18899;50.748;7.102;2023-06-14T03:42:43;15.70;99.90
32446;DHT22;18899;50.748;7.102;2023-06-14T03:45:09;15.80;99.90
32446;DHT22;18899;50.748;7.102;2023-06-14T03:47:35;15.80;99.90
32446;DHT22;18899;50.748;7.102;2023-06-14T03:50:04;15.80;99.90
32446;DHT22;18899;50.748;7.102;2023-06-14T03:52:31;15.90;99.90
32446;DHT22;18899;50.748;7.102;2023-06-14T03:54:56;16.00;99.90
32446;DHT22;18899;50.748;7.102;2023-06-14T03:57:23;16.00;99.90
32446;DHT22;18899;50.748;7.102;2023-06-14T03:59:48;16.00;99.90
32446;DHT22;18899;50.748;7.102;2023-06-14T04:02:14;16.00;99.90
32446;DHT22;18899;50.748;7.102;2023-06-14T04:04:43;15.90;99.90
32446;DHT22;18899;50.748;7.102;2023-06-14T04:07:14;16.00;99.90
32446;DHT22;18899;50.748;7.102;2023-06-14T04:09:40;16.00;99.90
32446;DHT22;18899;50.748;7.102;2023-06-14T04:12:07;16.00;99.90
32446;DHT22;18899;50.748;7.102;2023-06-14T04:14:34;16.10;99.90
32446;DHT22;18899;50.748;7.102;2023-06-14T04:17:00;16.00;99.90
32446;DHT22;18899;50.748;7.102;2023-06-14T04:19:26;16.00;99.90
32446;DHT22;18899;50.748;7.102;2023-06-14T04:21:52;16.00;99.90
32446;DHT22;18899;50.748;7.102;2023-06-14T04:24:17;16.10;99.90
32446;DHT22;18899;50.748;7.102;2023-06-14T04:26:44;16.10;99.90
32446;DHT22;18899;50.748;7.102;2023-06-14T04:29:17;16.30;99.90
32446;DHT22;18899;50.748;7.102;2023-06-14T04:31:45;16.80;99.90
32446;DHT22;18899;50.748;7.102;2023-06-14T04:34:12;17.10;99.90
32446;DHT22;18899;50.748;7.102;2023-06-14T04:36:44;17.30;99.90
32446;DHT22;18899;50.748;7.102;2023-06-14T04:39:21;17.40;99.90
32446;DHT22;18899;50.748;7.102;2023-06-14T04:41:47;17.50;99.90
32446;DHT22;18899;50.748;7.102;2023-06-14T04:44:13;17.50;99.90
32446;DHT22;18899;50.748;7.102;2023-06-14T04:46:39;17.60;99.90
32446;DHT22;18899;50.748;7.102;2023-06-14T04:49:17;17.60;99.90
32446;DHT22;18899;50.748;7.102;2023-06-14T04:51:44;17.70;99.90
32446;DHT22;18899;50.748;7.102;2023-06-14T04:54:10;17.70;99.90
32446;DHT22;18899;50.748;7.102;2023-06-14T04:56:39;17.60;99.90
32446;DHT22;18899;50.748;7.102;2023-06-14T04:59:05;17.70;99.90
32446;DHT22;18899;50.748;7.102;2023-06-14T05:01:31;17.60;99.90
32446;DHT22;18899;50.748;7.102;2023-06-14T05:03:59;17.70;99.90
32446;DHT22;18899;50.748;7.102;2023-06-14T05:06:25;17.60;99.90
32446;DHT22;18899;50.748;7.102;2023-06-14T05:08:53;17.70;99.90
32446;DHT22;18899;50.748;7.102;2023-06-14T05:11:18;17.70;99.90
32446;DHT22;18899;50.748;7.102;2023-06-14T05:13:44;17.70;99.90
32446;DHT22;18899;50.748;7.102;2023-06-14T05:16:13;17.90;99.90
32446;DHT22;18899;50.748;7.102;2023-06-14T05:18:41;18.10;99.90
32446;DHT22;18899;50.748;7.102;2023-06-14T05:21:06;18.40;99.90
32446;DHT22;18899;50.748;7.102;2023-06-14T05:23:32;18.60;99.90
32446;DHT22;18899;50.748;7.102;2023-06-14T05:25:58;19.00;99.90
32446;DHT22;18899;50.748;7.102;2023-06-14T05:28:24;19.60;99.50
32446;DHT22;18899;50.748;7.102;2023-06-14T05:30:50;20.40;95.80
32446;DHT22;18899;50.748;7.102;2023-06-14T05:33:16;21.20;94.00
32446;DHT22;18899;50.748;7.102;2023-06-14T05:35:42;21.70;91.60
32446;DHT22;18899;50.748;7.102;2023-06-14T05:38:07;22.20;88.70
32446;DHT22;18899;50.748;7.102;2023-06-14T05:40:33;22.60;86.80
32446;DHT22;18899;50.748;7.102;2023-06-14T05:42:59;22.60;81.90
32446;DHT22;18899;50.748;7.102;2023-06-14T05:45:25;22.30;83.40
32446;DHT22;18899;50.748;7.102;2023-06-14T05:47:50;22.20;82.80
32446;DHT22;18899;50.748;7.102;2023-06-14T05:50:16;21.60;81.80
32446;DHT22;18899;50.748;7.102;2023-06-14T05:52:42;21.00;85.00
32446;DHT22;18899;50.748;7.102;2023-06-14T05:55:08;20.50;86.90
32446;DHT22;18899;50.748;7.102;2023-06-14T05:57:34;20.30;87.00
32446;DHT22;18899;50.748;7.102;2023-06-14T05:59:59;20.20;89.20
32446;DHT22;18899;50.748;7.102;2023-06-14T06:02:25;20.00;89.90
32446;DHT22;18899;50.748;7.102;2023-06-14T06:04:50;19.90;90.20
32446;DHT22;18899;50.748;7.102;2023-06-14T06:07:16;19.90;90.00
32446;DHT22;18899;50.748;7.102;2023-06-14T06:09:41;19.90;89.00
32446;DHT22;18899;50.748;7.102;2023-06-14T06:12:07;20.10;89.40
32446;DHT22;18899;50.748;7.102;2023-06-14T06:14:33;20.30;86.70
32446;DHT22;18899;50.748;7.102;2023-06-14T06:16:58;20.50;83.80
32446;DHT22;18899;50.748;7.102;2023-06-14T06:19:24;21.20;83.00
32446;DHT22;18899;50.748;7.102;2023-06-14T06:21:50;22.40;76.00
32446;DHT22;18899;50.748;7.102;2023-06-14T06:24:15;23.20;73.20
32446;DHT22;18899;50.748;7.102;2023-06-14T06:26:41;24.20;68.40
32446;DHT22;18899;50.748;7.102;2023-06-14T06:29:07;25.00;66.80
32446;DHT22;18899;50.748;7.102;2023-06-14T06:31:33;25.00;64.50
32446;DHT22;18899;50.748;7.102;2023-06-14T06:33:58;25.60;61.20
32446;DHT22;18899;50.748;7.102;2023-06-14T06:36:24;25.50;61.40
32446;DHT22;18899;50.748;7.102;2023-06-14T06:38:50;25.70;61.50
32446;DHT22;18899;50.748;7.102;2023-06-14T06:41:15;26.20;59.30
32446;DHT22;18899;50.748;7.102;2023-06-14T06:43:41;26.00;59.10
32446;DHT22;18899;50.748;7.102;2023-06-14T06:46:07;26.40;58.30
32446;DHT22;18899;50.748;7.102;2023-06-14T06:48:32;26.30;58.10
32446;DHT22;18899;50.748;7.102;2023-06-14T06:50:58;27.10;56.40
32446;DHT22;18899;50.748;7.102;2023-06-14T06:53:23;26.70;57.40
32446;DHT22;18899;50.748;7.102;2023-06-14T06:55:49;26.40;57.30
32446;DHT22;18899;50.748;7.102;2023-06-14T06:58:14;26.30;57.60
32446;DHT22;18899;50.748;7.102;2023-06-14T07:00:40;26.30;57.50
32446;DHT22;18899;50.748;7.102;2023-06-14T07:03:06;26.30;58.40
32446;DHT22;18899;50.748;7.102;2023-06-14T07:05:32;26.40;56.60
32446;DHT22;18899;50.748;7.102;2023-06-14T07:07:58;26.40;56.40
32446;DHT22;18899;50.748;7.102;2023-06-14T07:10:23;26.80;55.60
32446;DHT22;18899;50.748;7.102;2023-06-14T07:12:50;27.00;55.40
32446;DHT22;18899;50.748;7.102;2023-06-14T07:15:16;26.60;56.20
32446;DHT22;18899;50.748;7.102;2023-06-14T07:17:41;27.30;54.50
32446;DHT22;18899;50.748;7.102;2023-06-14T07:20:08;27.30;54.60
32446;DHT22;18899;50.748;7.102;2023-06-14T07:22:37;28.10;53.70
32446;DHT22;18899;50.748;7.102;2023-06-14T07:25:03;28.50;52.60
32446;DHT22;18899;50.748;7.102;2023-06-14T07:27:29;28.80;52.40
32446;DHT22;18899;50.748;7.102;2023-06-14T07:29:55;29.10;51.90
32446;DHT22;18899;50.748;7.102;2023-06-14T07:32:20;29.50;50.70
32446;DHT22;18899;50.748;7.102;2023-06-14T07:34:46;29.40;49.70
32446;DHT22;18899;50.748;7.102;2023-06-14T07:37:11;29.60;49.50
32446;DHT22;18899;50.748;7.102;2023-06-14T07:39:37;29.20;53.00
32446;DHT22;18899;50.748;7.102;2023-06-14T07:42:02;29.00;52.10
32446;DHT22;18899;50.748;7.102;2023-06-14T07:44:29;28.60;51.20
32446;DHT22;18899;50.748;7.102;2023-06-14T07:46:56;28.20;52.00
32446;DHT22;18899;50.748;7.102;2023-06-14T07:49:24;27.90;52.80
32446;DHT22;18899;50.748;7.102;2023-06-14T07:51:49;28.80;52.30
32446;DHT22;18899;50.748;7.102;2023-06-14T07:54:16;29.80;50.00
32446;DHT22;18899;50.748;7.102;2023-06-14T07:56:42;30.40;48.20
32446;DHT22;18899;50.748;7.102;2023-06-14T07:59:07;29.90;49.20
32446;DHT22;18899;50.748;7.102;2023-06-14T08:01:33;29.60;48.10
32446;DHT22;18899;50.748;7.102;2023-06-14T08:03:59;30.10;47.00
32446;DHT22;18899;50.748;7.102;2023-06-14T08:06:24;29.60;48.70
32446;DHT22;18899;50.748;7.102;2023-06-14T08:08:50;29.10;47.20
32446;DHT22;18899;50.748;7.102;2023-06-14T08:11:15;29.50;47.90
32446;DHT22;18899;50.748;7.102;2023-06-14T08:13:41;29.40;48.80
32446;DHT22;18899;50.748;7.102;2023-06-14T08:16:06;29.00;46.90
32446;DHT22;18899;50.748;7.102;2023-06-14T08:18:32;29.00;47.90
32446;DHT22;18899;50.748;7.102;2023-06-14T08:20:58;29.70;48.10
32446;DHT22;18899;50.748;7.102;2023-06-14T08:23:23;29.60;47.00
32446;DHT22;18899;50.748;7.102;2023-06-14T08:25:49;30.00;47.30
32446;DHT22;18899;50.748;7.102;2023-06-14T08:28:14;30.50;46.20
32446;DHT22;18899;50.748;7.102;2023-06-14T08:30:42;29.80;48.10
32446;DHT22;18899;50.748;7.102;2023-06-14T08:33:07;30.30;45.80
32446;DHT22;18899;50.748;7.102;2023-06-14T08:35:33;30.50;48.40
32446;DHT22;18899;50.748;7.102;2023-06-14T08:37:58;31.20;48.40
32446;DHT22;18899;50.748;7.102;2023-06-14T08:40:24;31.30;43.30
32446;DHT22;18899;50.748;7.102;2023-06-14T08:42:52;32.30;42.80
32446;DHT22;18899;50.748;7.102;2023-06-14T08:45:22;32.30;42.80
32446;DHT22;18899;50.748;7.102;2023-06-14T08:47:48;31.00;44.90
32446;DHT22;18899;50.748;7.102;2023-06-14T08:50:20;30.10;45.30
32446;DHT22;18899;50.748;7.102;2023-06-14T08:52:48;30.30;47.00
32446;DHT22;18899;50.748;7.102;2023-06-14T08:55:18;30.30;46.30
32446;DHT22;18899;50.748;7.102;2023-06-14T08:57:46;31.10;45.10
32446;DHT22;18899;50.748;7.102;2023-06-14T09:00:12;30.80;44.70
32446;DHT22;18899;50.748;7.102;2023-06-14T09:02:39;31.00;42.50
32446;DHT22;18899;50.748;7.102;2023-06-14T09:05:09;31.50;41.20
32446;DHT22;18899;50.748;7.102;2023-06-14T09:07:35;32.00;39.10
32446;DHT22;18899;50.748;7.102;2023-06-14T09:10:20;32.50;38.90
32446;DHT22;18899;50.748;7.102;2023-06-14T09:12:46;33.30;41.20
32446;DHT22;18899;50.748;7.102;2023-06-14T09:15:12;32.10;43.20
32446;DHT22;18899;50.748;7.102;2023-06-14T09:17:39;30.90;42.50
32446;DHT22;18899;50.748;7.102;2023-06-14T09:20:06;31.20;41.40
32446;DHT22;18899;50.748;7.102;2023-06-14T09:22:35;31.40;39.80
32446;DHT22;18899;50.748;7.102;2023-06-14T09:25:01;31.40;40.20
32446;DHT22;18899;50.748;7.102;2023-06-14T09:27:27;31.90;39.00
32446;DHT22;18899;50.748;7.102;2023-06-14T09:29:53;32.20;39.30
32446;DHT22;18899;50.748;7.102;2023-06-14T09:32:20;32.20;41.30
32446;DHT22;18899;50.748;7.102;2023-06-14T09:34:46;31.40;42.60
32446;DHT22;18899;50.748;7.102;2023-06-14T09:37:11;31.40;41.70
32446;DHT22;18899;50.748;7.102;2023-06-14T09:40:03;30.40;42.30
32446;DHT22;18899;50.748;7.102;2023-06-14T09:42:29;31.00;40.80
32446;DHT22;18899;50.748;7.102;2023-06-14T09:44:56;31.50;39.40
32446;DHT22;18899;50.748;7.102;2023-06-14T09:47:23;30.90;40.10
32446;DHT22;18899;50.748;7.102;2023-06-14T09:49:50;30.20;42.10
32446;DHT22;18899;50.748;7.102;2023-06-14T09:52:17;30.70;42.40
32446;DHT22;18899;50.748;7.102;2023-06-14T09:54:44;30.80;42.90
32446;DHT22;18899;50.748;7.102;2023-06-14T09:57:13;30.40;42.70
32446;DHT22;18899;50.748;7.102;2023-06-14T09:59:45;30.10;43.20
32446;DHT22;18899;50.748;7.102;2023-06-14T10:02:26;30.90;41.00
32446;DHT22;18899;50.748;7.102;2023-06-14T10:05:04;32.30;39.40
32446;DHT22;18899;50.748;7.102;2023-06-14T10:07:36;31.80;40.40
32446;DHT22;18899;50.748;7.102;2023-06-14T10:10:04;31.60;42.10
32446;DHT22;18899;50.748;7.102;2023-06-14T10:12:31;30.90;44.70
32446;DHT22;18899;50.748;7.102;2023-06-14T10:14:57;31.50;39.70
32446;DHT22;18899;50.748;7.102;2023-06-14T10:17:46;32.60;40.70
32446;DHT22;18899;50.748;7.102;2023-06-14T10:20:21;32.20;40.20
32446;DHT22;18899;50.748;7.102;2023-06-14T10:23:02;33.50;39.00
32446;DHT22;18899;50.748;7.102;2023-06-14T10:25:30;32.70;40.60
32446;DHT22;18899;50.748;7.102;2023-06-14T10:28:23;32.10;39.60
32446;DHT22;18899;50.748;7.102;2023-06-14T10:31:09;31.50;41.40
32446;DHT22;18899;50.748;7.102;2023-06-14T10:38:57;31.00;42.40
32446;DHT22;18899;50.748;7.102;2023-06-14T10:41:24;31.00;42.40
32446;DHT22;18899;50.748;7.102;2023-06-14T10:43:51;31.10;42.10
32446;DHT22;18899;50.748;7.102;2023-06-14T10:46:19;30.80;42.50
32446;DHT22;18899;50.748;7.102;2023-06-14T10:48:48;31.20;41.20
32446;DHT22;18899;50.748;7.102;2023-06-14T10:51:20;31.10;40.40
32446;DHT22;18899;50.748;7.102;2023-06-14T10:53:50;31.00;41.30
32446;DHT22;18899;50.748;7.102;2023-06-14T10:56:29;31.10;42.90
32446;DHT22;18899;50.748;7.102;2023-06-14T10:58:56;29.70;41.90
32446;DHT22;18899;50.748;7.102;2023-06-14T11:01:37;28.70;44.00
32446;DHT22;18899;50.748;7.102;2023-06-14T11:04:07;27.40;46.60
32446;DHT22;18899;50.748;7.102;2023-06-14T11:06:48;26.90;48.30
32446;DHT22;18899;50.748;7.102;2023-06-14T11:12:01;26.20;48.10
32446;DHT22;18899;50.748;7.102;2023-06-14T11:14:30;26.00;52.60
32446;DHT22;18899;50.748;7.102;2023-06-14T11:16:56;26.20;48.10
32446;DHT22;18899;50.748;7.102;2023-06-14T11:19:22;26.10;51.40
32446;DHT22;18899;50.748;7.102;2023-06-14T11:21:48;26.10;50.10
32446;DHT22;18899;50.748;7.102;2023-06-14T11:24:14;25.80;50.30
32446;DHT22;18899;50.748;7.102;2023-06-14T11:26:40;25.40;52.80
32446;DHT22;18899;50.748;7.102;2023-06-14T11:29:06;25.40;50.60
32446;DHT22;18899;50.748;7.102;2023-06-14T11:31:31;25.40;51.00
32446;DHT22;18899;50.748;7.102;2023-06-14T11:33:59;25.30;50.80
32446;DHT22;18899;50.748;7.102;2023-06-14T11:36:33;25.10;53.00
32446;DHT22;18899;50.748;7.102;2023-06-14T11:39:00;24.80;54.30
32446;DHT22;18899;50.748;7.102;2023-06-14T11:41:42;24.90;54.40
32446;DHT22;18899;50.748;7.102;2023-06-14T11:44:09;25.00;55.40
32446;DHT22;18899;50.748;7.102;2023-06-14T11:46:34;25.00;52.60
32446;DHT22;18899;50.748;7.102;2023-06-14T11:49:01;24.90;52.40
32446;DHT22;18899;50.748;7.102;2023-06-14T11:51:33;24.60;54.00
32446;DHT22;18899;50.748;7.102;2023-06-14T11:53:59;24.60;57.80
32446;DHT22;18899;50.748;7.102;2023-06-14T11:56:25;24.80;52.80
32446;DHT22;18899;50.748;7.102;2023-06-14T11:58:52;24.70;54.20
32446;DHT22;18899;50.748;7.102;2023-06-14T12:01:18;24.80;53.70
32446;DHT22;18899;50.748;7.102;2023-06-14T12:03:48;24.90;56.30
32446;DHT22;18899;50.748;7.102;2023-06-14T12:06:14;24.90;52.40
32446;DHT22;18899;50.748;7.102;2023-06-14T12:08:40;24.90;54.70
32446;DHT22;18899;50.748;7.102;2023-06-14T12:11:12;24.80;53.00
32446;DHT22;18899;50.748;7.102;2023-06-14T12:13:39;24.70;54.60
32446;DHT22;18899;50.748;7.102;2023-06-14T12:16:10;24.60;52.00
32446;DHT22;18899;50.748;7.102;2023-06-14T12:18:38;24.60;50.00
32446;DHT22;18899;50.748;7.102;2023-06-14T12:21:08;24.60;54.80
32446;DHT22;18899;50.748;7.102;2023-06-14T12:23:47;24.70;55.10
32446;DHT22;18899;50.748;7.102;2023-06-14T12:26:14;24.80;57.20
32446;DHT22;18899;50.748;7.102;2023-06-14T12:28:41;24.90;53.60
32446;DHT22;18899;50.748;7.102;2023-06-14T12:31:11;25.00;54.90
32446;DHT22;18899;50.748;7.102;2023-06-14T12:33:38;24.80;54.90
32446;DHT22;18899;50.748;7.102;2023-06-14T12:36:13;24.80;54.90
32446;DHT22;18899;50.748;7.102;2023-06-14T12:38:38;24.90;52.70
32446;DHT22;18899;50.748;7.102;2023-06-14T12:41:04;24.90;56.40
32446;DHT22;18899;50.748;7.102;2023-06-14T12:43:29;24.80;54.70
32446;DHT22;18899;50.748;7.102;2023-06-14T12:45:55;24.80;57.30
32446;DHT22;18899;50.748;7.102;2023-06-14T12:48:21;24.70;54.50
32446;DHT22;18899;50.748;7.102;2023-06-14T12:50:47;24.60;55.20
32446;DHT22;18899;50.748;7.102;2023-06-14T12:53:13;24.60;53.30
32446;DHT22;18899;50.748;7.102;2023-06-14T12:55:38;24.80;55.10
32446;DHT22;18899;50.748;7.102;2023-06-14T12:58:04;24.80;54.20
32446;DHT22;18899;50.748;7.102;2023-06-14T13:00:29;24.70;55.00
32446;DHT22;18899;50.748;7.102;2023-06-14T13:02:56;24.70;55.90
32446;DHT22;18899;50.748;7.102;2023-06-14T13:05:22;24.90;56.80
32446;DHT22;18899;50.748;7.102;2023-06-14T13:07:47;24.90;56.20
32446;DHT22;18899;50.748;7.102;2023-06-14T13:10:13;24.80;56.00
32446;DHT22;18899;50.748;7.102;2023-06-14T13:12:39;24.90;54.80
32446;DHT22;18899;50.748;7.102;2023-06-14T13:15:05;25.10;54.60
32446;DHT22;18899;50.748;7.102;2023-06-14T13:17:33;24.90;54.50
32446;DHT22;18899;50.748;7.102;2023-06-14T13:20:06;24.50;55.70
32446;DHT22;18899;50.748;7.102;2023-06-14T13:22:32;24.40;56.20
32446;DHT22;18899;50.748;7.102;2023-06-14T13:24:58;24.40;53.70
32446;DHT22;18899;50.748;7.102;2023-06-14T13:27:24;24.40;57.80
32446;DHT22;18899;50.748;7.102;2023-06-14T13:29:50;24.40;55.20
32446;DHT22;18899;50.748;7.102;2023-06-14T13:32:15;24.50;56.30
32446;DHT22;18899;50.748;7.102;2023-06-14T13:34:41;24.40;57.30
32446;DHT22;18899;50.748;7.102;2023-06-14T13:37:06;24.40;56.00
32446;DHT22;18899;50.748;7.102;2023-06-14T13:39:32;24.40;58.50
32446;DHT22;18899;50.748;7.102;2023-06-14T13:41:58;24.50;56.80
32446;DHT22;18899;50.748;7.102;2023-06-14T13:44:23;24.50;57.10
32446;DHT22;18899;50.748;7.102;2023-06-14T13:46:50;24.50;56.00
32446;DHT22;18899;50.748;7.102;2023-06-14T13:49:16;24.40;58.00
32446;DHT22;18899;50.748;7.102;2023-06-14T13:51:42;24.30;57.70
32446;DHT22;18899;50.748;7.102;2023-06-14T13:54:07;24.40;54.00
32446;DHT22;18899;50.748;7.102;2023-06-14T13:56:33;24.40;57.80
32446;DHT22;18899;50.748;7.102;2023-06-14T13:58:58;24.40;55.00
32446;DHT22;18899;50.748;7.102;2023-06-14T14:01:25;24.30;55.40
32446;DHT22;18899;50.748;7.102;2023-06-14T14:03:52;24.40;55.70
32446;DHT22;18899;50.748;7.102;2023-06-14T14:06:17;24.40;58.00
32446;DHT22;18899;50.748;7.102;2023-06-14T14:08:43;24.40;56.90
32446;DHT22;18899;50.748;7.102;2023-06-14T14:11:09;24.40;55.30
32446;DHT22;18899;50.748;7.102;2023-06-14T14:13:36;24.40;57.30
32446;DHT22;18899;50.748;7.102;2023-06-14T14:16:02;24.20;56.50
32446;DHT22;18899;50.748;7.102;2023-06-14T14:18:28;24.10;56.60
32446;DHT22;18899;50.748;7.102;2023-06-14T14:20:54;24.20;56.30
32446;DHT22;18899;50.748;7.102;2023-06-14T14:23:21;24.20;55.10
32446;DHT22;18899;50.748;7.102;2023-06-14T14:25:47;24.30;55.40
32446;DHT22;18899;50.748;7.102;2023-06-14T14:28:13;24.40;57.60
32446;DHT22;18899;50.748;7.102;2023-06-14T14:30:41;24.50;55.60
32446;DHT22;18899;50.748;7.102;2023-06-14T14:33:07;24.40;58.00
32446;DHT22;18899;50.748;7.102;2023-06-14T14:35:32;24.20;55.80
32446;DHT22;18899;50.748;7.102;2023-06-14T14:37:58;24.20;57.60
32446;DHT22;18899;50.748;7.102;2023-06-14T14:40:24;24.40;54.40
32446;DHT22;18899;50.748;7.102;2023-06-14T14:42:50;24.50;56.00
32446;DHT22;18899;50.748;7.102;2023-06-14T14:45:15;24.50;55.80
32446;DHT22;18899;50.748;7.102;2023-06-14T14:47:41;24.50;56.30
32446;DHT22;18899;50.748;7.102;2023-06-14T14:50:06;24.40;55.10
32446;DHT22;18899;50.748;7.102;2023-06-14T14:52:34;24.30;56.00
32446;DHT22;18899;50.748;7.102;2023-06-14T14:55:00;24.30;57.30
32446;DHT22;18899;50.748;7.102;2023-06-14T14:57:26;24.20;55.50
32446;DHT22;18899;50.748;7.102;2023-06-14T14:59:52;24.10;56.40
32446;DHT22;18899;50.748;7.102;2023-06-14T15:02:18;24.20;56.10
32446;DHT22;18899;50.748;7.102;2023-06-14T15:04:44;24.20;54.20
32446;DHT22;18899;50.748;7.102;2023-06-14T15:07:10;24.30;54.20
32446;DHT22;18899;50.748;7.102;2023-06-14T15:09:35;24.10;54.50
32446;DHT22;18899;50.748;7.102;2023-06-14T15:12:01;24.10;54.90
32446;DHT22;18899;50.748;7.102;2023-06-14T15:14:28;24.10;55.10
32446;DHT22;18899;50.748;7.102;2023-06-14T15:16:53;24.00;56.30
32446;DHT22;18899;50.748;7.102;2023-06-14T15:19:20;24.10;58.00
32446;DHT22;18899;50.748;7.102;2023-06-14T15:21:45;24.10;55.10
32446;DHT22;18899;50.748;7.102;2023-06-14T15:24:11;24.20;55.50
32446;DHT22;18899;50.748;7.102;2023-06-14T15:26:36;24.50;56.90
32446;DHT22;18899;50.748;7.102;2023-06-14T15:29:02;24.70;54.90
32446;DHT22;18899;50.748;7.102;2023-06-14T15:31:27;24.80;54.40
32446;DHT22;18899;50.748;7.102;2023-06-14T15:33:54;24.60;54.30
32446;DHT22;18899;50.748;7.102;2023-06-14T15:36:20;24.50;54.80
32446;DHT22;18899;50.748;7.102;2023-06-14T15:38:45;24.20;55.90
32446;DHT22;18899;50.748;7.102;2023-06-14T15:41:11;24.00;56.80